Aviation Digital Data Service (ADDS)

Output produced by METARs form (1321 UTC 23 January 2019)
found at http://www.aviationweather.gov/metar/data/
 
Forecast for: EVLA (LIEPAJA INTL , LV)
Text: TAF EVLA 231106Z 2312/2412 17007KT 8000 FEW030
Forecast period: 1200 UTC 23 January 2019 to 1200 UTC 24 January 2019
Forecast type: FROM: standard forecast or significant change
Winds: from the S (170 degrees) at 8 MPH (7 knots; 3.6 m/s)
Visibility: 5 miles (8 km)
Ceiling: at least 12,000 feet AGL
Clouds: few clouds at 3000 feet AGL
Weather: no significant weather forecast for this period
Text: PROB40
Forecast period: 1800 UTC 23 January 2019 to 0900 UTC 24 January 2019
Forecast type: TEMPORARY: The following changes expected for less than half the time period
Visibility: 1.24 miles (2.00 km)
Ceiling: unknown
Clouds: missing
Weather: BR  (mist)